sensor_id;sensor_type;location;lat;lon;timestamp;P1;durP1;ratioP1;P2;durP2;ratioP2
50225;SDS011;36113;50.742;6.432;2022-10-22T00:00:07;2.50;;;2.10;;
50225;SDS011;36113;50.742;6.432;2022-10-22T00:02:35;2.58;;;2.22;;
50225;SDS011;36113;50.742;6.432;2022-10-22T00:05:00;8.73;;;2.55;;
50225;SDS011;36113;50.742;6.432;2022-10-22T00:07:26;8.40;;;2.80;;
50225;SDS011;36113;50.742;6.432;2022-10-22T00:09:51;4.93;;;2.23;;
50225;SDS011;36113;50.742;6.432;2022-10-22T00:12:17;2.58;;;2.38;;
50225;SDS011;36113;50.742;6.432;2022-10-22T00:14:43;6.88;;;2.47;;
50225;SDS011;36113;50.742;6.432;2022-10-22T00:17:08;8.13;;;2.10;;
50225;SDS011;36113;50.742;6.432;2022-10-22T00:19:34;6.93;;;2.20;;
50225;SDS011;36113;50.742;6.432;2022-10-22T00:21:59;5.23;;;2.13;;
50225;SDS011;36113;50.742;6.432;2022-10-22T00:24:24;4.37;;;2.10;;
50225;SDS011;36113;50.742;6.432;2022-10-22T00:26:50;8.07;;;2.25;;
50225;SDS011;36113;50.742;6.432;2022-10-22T00:29:16;4.47;;;1.80;;
50225;SDS011;36113;50.742;6.432;2022-10-22T00:31:45;5.55;;;1.98;;
50225;SDS011;36113;50.742;6.432;2022-10-22T00:34:14;8.50;;;2.83;;
50225;SDS011;36113;50.742;6.432;2022-10-22T00:36:41;5.55;;;2.83;;
50225;SDS011;36113;50.742;6.432;2022-10-22T00:39:06;4.53;;;2.03;;
50225;SDS011;36113;50.742;6.432;2022-10-22T00:41:31;2.57;;;2.13;;
50225;SDS011;36113;50.742;6.432;2022-10-22T00:44:00;3.90;;;2.33;;
50225;SDS011;36113;50.742;6.432;2022-10-22T00:46:29;6.15;;;2.25;;
50225;SDS011;36113;50.742;6.432;2022-10-22T00:48:55;8.30;;;2.67;;
50225;SDS011;36113;50.742;6.432;2022-10-22T00:51:22;6.90;;;2.15;;
50225;SDS011;36113;50.742;6.432;2022-10-22T00:53:53;3.58;;;2.17;;
50225;SDS011;36113;50.742;6.432;2022-10-22T00:56:21;3.50;;;2.03;;
50225;SDS011;36113;50.742;6.432;2022-10-22T00:58:50;5.82;;;2.22;;
50225;SDS011;36113;50.742;6.432;2022-10-22T01:01:19;5.65;;;2.72;;
50225;SDS011;36113;50.742;6.432;2022-10-22T01:03:47;6.20;;;2.13;;
50225;SDS011;36113;50.742;6.432;2022-10-22T01:06:14;7.85;;;2.67;;
50225;SDS011;36113;50.742;6.432;2022-10-22T01:14:57;9.43;;;2.58;;
50225;SDS011;36113;50.742;6.432;2022-10-22T01:17:47;3.92;;;2.50;;
50225;SDS011;36113;50.742;6.432;2022-10-22T01:31:14;6.07;;;2.90;;
50225;SDS011;36113;50.742;6.432;2022-10-22T01:33:42;13.32;;;3.03;;
50225;SDS011;36113;50.742;6.432;2022-10-22T01:36:10;7.15;;;3.10;;
50225;SDS011;36113;50.742;6.432;2022-10-22T01:41:02;4.63;;;2.88;;
50225;SDS011;36113;50.742;6.432;2022-10-22T01:43:28;4.55;;;2.67;;
50225;SDS011;36113;50.742;6.432;2022-10-22T01:45:55;12.00;;;2.97;;
50225;SDS011;36113;50.742;6.432;2022-10-22T01:53:49;8.38;;;3.38;;
50225;SDS011;36113;50.742;6.432;2022-10-22T02:04:42;4.63;;;2.90;;
50225;SDS011;36113;50.742;6.432;2022-10-22T02:07:13;7.70;;;3.50;;
50225;SDS011;36113;50.742;6.432;2022-10-22T02:09:41;5.18;;;3.25;;
50225;SDS011;36113;50.742;6.432;2022-10-22T02:12:08;7.28;;;3.55;;
50225;SDS011;36113;50.742;6.432;2022-10-22T02:14:36;6.97;;;3.00;;
50225;SDS011;36113;50.742;6.432;2022-10-22T02:17:04;6.97;;;3.13;;
50225;SDS011;36113;50.742;6.432;2022-10-22T02:19:37;5.13;;;3.05;;
50225;SDS011;36113;50.742;6.432;2022-10-22T02:22:08;6.68;;;3.42;;
50225;SDS011;36113;50.742;6.432;2022-10-22T02:24:33;6.90;;;4.00;;
50225;SDS011;36113;50.742;6.432;2022-10-22T02:29:40;5.68;;;3.35;;
50225;SDS011;36113;50.742;6.432;2022-10-22T02:32:10;5.20;;;3.45;;
50225;SDS011;36113;50.742;6.432;2022-10-22T02:34:40;5.78;;;3.38;;
50225;SDS011;36113;50.742;6.432;2022-10-22T02:37:06;7.15;;;3.33;;
50225;SDS011;36113;50.742;6.432;2022-10-22T02:39:32;8.85;;;3.55;;
50225;SDS011;36113;50.742;6.432;2022-10-22T02:44:25;9.55;;;3.67;;
50225;SDS011;36113;50.742;6.432;2022-10-22T02:46:51;5.15;;;3.50;;
50225;SDS011;36113;50.742;6.432;2022-10-22T02:49:16;4.70;;;3.40;;
50225;SDS011;36113;50.742;6.432;2022-10-22T02:51:41;5.87;;;3.53;;
50225;SDS011;36113;50.742;6.432;2022-10-22T02:54:07;5.87;;;3.43;;
50225;SDS011;36113;50.742;6.432;2022-10-22T02:56:32;6.83;;;4.03;;
50225;SDS011;36113;50.742;6.432;2022-10-22T02:58:58;6.17;;;3.23;;
50225;SDS011;36113;50.742;6.432;2022-10-22T03:01:23;7.03;;;3.73;;
50225;SDS011;36113;50.742;6.432;2022-10-22T03:03:48;6.40;;;3.33;;
50225;SDS011;36113;50.742;6.432;2022-10-22T03:06:14;3.70;;;3.40;;
50225;SDS011;36113;50.742;6.432;2022-10-22T03:08:39;6.63;;;3.10;;
50225;SDS011;36113;50.742;6.432;2022-10-22T03:11:05;3.70;;;3.20;;
50225;SDS011;36113;50.742;6.432;2022-10-22T03:13:30;6.40;;;3.20;;
50225;SDS011;36113;50.742;6.432;2022-10-22T03:15:56;5.63;;;3.77;;
50225;SDS011;36113;50.742;6.432;2022-10-22T03:18:21;7.43;;;3.53;;
50225;SDS011;36113;50.742;6.432;2022-10-22T03:20:46;3.53;;;2.90;;
50225;SDS011;36113;50.742;6.432;2022-10-22T03:23:12;5.97;;;2.80;;
50225;SDS011;36113;50.742;6.432;2022-10-22T03:25:41;3.80;;;2.97;;
50225;SDS011;36113;50.742;6.432;2022-10-22T03:28:08;4.22;;;2.92;;
50225;SDS011;36113;50.742;6.432;2022-10-22T03:30:37;8.18;;;2.70;;
50225;SDS011;36113;50.742;6.432;2022-10-22T03:33:03;6.75;;;3.67;;
50225;SDS011;36113;50.742;6.432;2022-10-22T03:35:28;7.07;;;3.22;;
50225;SDS011;36113;50.742;6.432;2022-10-22T03:37:55;6.25;;;2.90;;
50225;SDS011;36113;50.742;6.432;2022-10-22T03:40:23;3.63;;;2.95;;
50225;SDS011;36113;50.742;6.432;2022-10-22T03:42:48;4.15;;;3.00;;
50225;SDS011;36113;50.742;6.432;2022-10-22T03:45:14;3.40;;;3.10;;
50225;SDS011;36113;50.742;6.432;2022-10-22T03:47:39;5.03;;;3.30;;
50225;SDS011;36113;50.742;6.432;2022-10-22T03:50:05;8.63;;;3.60;;
50225;SDS011;36113;50.742;6.432;2022-10-22T03:52:34;11.37;;;4.00;;
50225;SDS011;36113;50.742;6.432;2022-10-22T03:55:00;6.25;;;3.58;;
50225;SDS011;36113;50.742;6.432;2022-10-22T03:57:26;4.00;;;2.97;;
50225;SDS011;36113;50.742;6.432;2022-10-22T03:59:51;4.03;;;2.80;;
50225;SDS011;36113;50.742;6.432;2022-10-22T04:02:16;5.88;;;3.30;;
50225;SDS011;36113;50.742;6.432;2022-10-22T04:04:42;8.07;;;3.00;;
50225;SDS011;36113;50.742;6.432;2022-10-22T04:07:07;6.03;;;3.10;;
50225;SDS011;36113;50.742;6.432;2022-10-22T04:09:33;8.27;;;2.90;;
50225;SDS011;36113;50.742;6.432;2022-10-22T04:11:59;5.33;;;3.50;;
50225;SDS011;36113;50.742;6.432;2022-10-22T04:14:25;7.63;;;3.67;;
50225;SDS011;36113;50.742;6.432;2022-10-22T04:16:50;4.33;;;2.60;;
50225;SDS011;36113;50.742;6.432;2022-10-22T04:19:16;5.33;;;2.60;;
50225;SDS011;36113;50.742;6.432;2022-10-22T04:21:42;4.30;;;2.92;;
50225;SDS011;36113;50.742;6.432;2022-10-22T04:24:07;4.27;;;3.10;;
50225;SDS011;36113;50.742;6.432;2022-10-22T04:26:33;9.60;;;2.87;;
50225;SDS011;36113;50.742;6.432;2022-10-22T04:28:58;4.50;;;3.23;;
50225;SDS011;36113;50.742;6.432;2022-10-22T04:31:24;4.50;;;2.70;;
50225;SDS011;36113;50.742;6.432;2022-10-22T04:36:19;3.13;;;2.55;;
50225;SDS011;36113;50.742;6.432;2022-10-22T04:38:46;4.53;;;2.70;;
50225;SDS011;36113;50.742;6.432;2022-10-22T04:41:19;7.78;;;3.17;;
50225;SDS011;36113;50.742;6.432;2022-10-22T04:43:47;6.35;;;2.70;;
50225;SDS011;36113;50.742;6.432;2022-10-22T04:46:14;10.17;;;2.50;;
50225;SDS011;36113;50.742;6.432;2022-10-22T04:51:07;5.60;;;2.30;;
50225;SDS011;36113;50.742;6.432;2022-10-22T04:53:34;4.63;;;2.40;;
50225;SDS011;36113;50.742;6.432;2022-10-22T04:58:31;8.07;;;3.03;;
50225;SDS011;36113;50.742;6.432;2022-10-22T05:00:57;5.28;;;2.70;;
50225;SDS011;36113;50.742;6.432;2022-10-22T05:03:23;6.53;;;3.60;;
50225;SDS011;36113;50.742;6.432;2022-10-22T05:08:14;3.60;;;2.25;;
50225;SDS011;36113;50.742;6.432;2022-10-22T05:10:39;7.28;;;2.78;;
50225;SDS011;36113;50.742;6.432;2022-10-22T05:13:05;7.60;;;2.77;;
50225;SDS011;36113;50.742;6.432;2022-10-22T05:15:31;9.63;;;2.50;;
50225;SDS011;36113;50.742;6.432;2022-10-22T05:17:57;5.93;;;2.42;;
50225;SDS011;36113;50.742;6.432;2022-10-22T05:20:22;3.63;;;2.20;;
50225;SDS011;36113;50.742;6.432;2022-10-22T05:22:48;2.55;;;2.35;;
50225;SDS011;36113;50.742;6.432;2022-10-22T05:25:13;3.50;;;2.07;;
50225;SDS011;36113;50.742;6.432;2022-10-22T05:27:38;2.92;;;2.22;;
50225;SDS011;36113;50.742;6.432;2022-10-22T05:30:04;4.05;;;2.45;;
50225;SDS011;36113;50.742;6.432;2022-10-22T05:32:30;3.28;;;2.67;;
50225;SDS011;36113;50.742;6.432;2022-10-22T05:34:55;3.33;;;1.90;;
50225;SDS011;36113;50.742;6.432;2022-10-22T05:37:20;6.47;;;1.75;;
50225;SDS011;36113;50.742;6.432;2022-10-22T05:39:45;3.60;;;1.73;;
50225;SDS011;36113;50.742;6.432;2022-10-22T05:42:11;4.93;;;2.20;;
50225;SDS011;36113;50.742;6.432;2022-10-22T05:44:36;7.47;;;2.35;;
50225;SDS011;36113;50.742;6.432;2022-10-22T05:47:02;8.35;;;3.13;;
50225;SDS011;36113;50.742;6.432;2022-10-22T05:49:28;5.25;;;1.83;;
50225;SDS011;36113;50.742;6.432;2022-10-22T05:51:53;2.95;;;1.48;;
50225;SDS011;36113;50.742;6.432;2022-10-22T05:54:19;9.03;;;2.00;;
50225;SDS011;36113;50.742;6.432;2022-10-22T05:56:49;4.13;;;1.60;;
50225;SDS011;36113;50.742;6.432;2022-10-22T05:59:14;4.13;;;1.50;;
50225;SDS011;36113;50.742;6.432;2022-10-22T06:01:39;5.70;;;2.20;;
50225;SDS011;36113;50.742;6.432;2022-10-22T06:04:06;5.40;;;1.95;;
50225;SDS011;36113;50.742;6.432;2022-10-22T06:06:36;5.45;;;2.00;;
50225;SDS011;36113;50.742;6.432;2022-10-22T06:09:10;3.38;;;1.70;;
50225;SDS011;36113;50.742;6.432;2022-10-22T06:11:40;5.22;;;1.55;;
50225;SDS011;36113;50.742;6.432;2022-10-22T06:14:05;4.65;;;1.95;;
50225;SDS011;36113;50.742;6.432;2022-10-22T06:16:31;6.70;;;2.58;;
50225;SDS011;36113;50.742;6.432;2022-10-22T06:18:59;4.78;;;2.15;;
50225;SDS011;36113;50.742;6.432;2022-10-22T06:21:29;8.60;;;1.90;;
50225;SDS011;36113;50.742;6.432;2022-10-22T06:26:21;5.57;;;2.00;;
50225;SDS011;36113;50.742;6.432;2022-10-22T06:28:46;5.30;;;2.00;;
50225;SDS011;36113;50.742;6.432;2022-10-22T06:31:12;5.72;;;2.60;;
50225;SDS011;36113;50.742;6.432;2022-10-22T06:33:38;9.77;;;2.42;;
50225;SDS011;36113;50.742;6.432;2022-10-22T06:36:07;2.35;;;1.83;;
50225;SDS011;36113;50.742;6.432;2022-10-22T06:38:35;6.65;;;2.55;;
50225;SDS011;36113;50.742;6.432;2022-10-22T06:41:04;5.68;;;2.25;;
50225;SDS011;36113;50.742;6.432;2022-10-22T06:43:31;4.00;;;2.00;;
50225;SDS011;36113;50.742;6.432;2022-10-22T06:46:00;4.22;;;2.22;;
50225;SDS011;36113;50.742;6.432;2022-10-22T06:48:26;5.50;;;2.15;;
50225;SDS011;36113;50.742;6.432;2022-10-22T06:50:52;5.53;;;2.20;;
50225;SDS011;36113;50.742;6.432;2022-10-22T06:53:17;5.18;;;2.05;;
50225;SDS011;36113;50.742;6.432;2022-10-22T06:55:42;5.60;;;2.30;;
50225;SDS011;36113;50.742;6.432;2022-10-22T06:58:08;6.83;;;2.17;;
50225;SDS011;36113;50.742;6.432;2022-10-22T07:00:33;4.53;;;2.03;;
50225;SDS011;36113;50.742;6.432;2022-10-22T07:02:58;4.45;;;1.88;;
50225;SDS011;36113;50.742;6.432;2022-10-22T07:05:24;10.55;;;1.92;;
50225;SDS011;36113;50.742;6.432;2022-10-22T07:07:49;7.33;;;1.70;;
50225;SDS011;36113;50.742;6.432;2022-10-22T07:10:14;4.55;;;1.70;;
50225;SDS011;36113;50.742;6.432;2022-10-22T07:12:40;6.63;;;1.90;;
50225;SDS011;36113;50.742;6.432;2022-10-22T07:15:05;4.15;;;1.92;;
50225;SDS011;36113;50.742;6.432;2022-10-22T07:17:31;8.03;;;2.10;;
50225;SDS011;36113;50.742;6.432;2022-10-22T07:19:56;7.07;;;2.20;;
50225;SDS011;36113;50.742;6.432;2022-10-22T07:22:21;5.23;;;2.20;;
50225;SDS011;36113;50.742;6.432;2022-10-22T07:24:47;8.10;;;2.47;;
50225;SDS011;36113;50.742;6.432;2022-10-22T07:27:12;7.47;;;2.23;;
50225;SDS011;36113;50.742;6.432;2022-10-22T07:29:37;4.70;;;1.70;;
50225;SDS011;36113;50.742;6.432;2022-10-22T07:32:02;6.95;;;2.20;;
50225;SDS011;36113;50.742;6.432;2022-10-22T07:34:28;3.45;;;1.70;;
50225;SDS011;36113;50.742;6.432;2022-10-22T07:36:54;5.30;;;1.92;;
50225;SDS011;36113;50.742;6.432;2022-10-22T07:39:21;6.60;;;1.83;;
50225;SDS011;36113;50.742;6.432;2022-10-22T07:41:47;10.23;;;2.63;;
50225;SDS011;36113;50.742;6.432;2022-10-22T07:44:12;7.13;;;1.97;;
50225;SDS011;36113;50.742;6.432;2022-10-22T07:46:37;7.95;;;1.73;;
50225;SDS011;36113;50.742;6.432;2022-10-22T07:49:03;7.57;;;2.00;;
50225;SDS011;36113;50.742;6.432;2022-10-22T07:51:28;3.70;;;2.00;;
50225;SDS011;36113;50.742;6.432;2022-10-22T07:53:53;8.63;;;2.77;;
50225;SDS011;36113;50.742;6.432;2022-10-22T07:56:19;6.60;;;2.00;;
50225;SDS011;36113;50.742;6.432;2022-10-22T07:58:44;4.20;;;1.33;;
50225;SDS011;36113;50.742;6.432;2022-10-22T08:01:09;6.30;;;1.63;;
50225;SDS011;36113;50.742;6.432;2022-10-22T08:03:35;6.77;;;1.57;;
50225;SDS011;36113;50.742;6.432;2022-10-22T08:06:00;6.30;;;2.77;;
50225;SDS011;36113;50.742;6.432;2022-10-22T08:08:26;16.37;;;5.20;;
50225;SDS011;36113;50.742;6.432;2022-10-22T08:10:51;6.97;;;3.60;;
50225;SDS011;36113;50.742;6.432;2022-10-22T08:13:17;5.03;;;1.70;;
50225;SDS011;36113;50.742;6.432;2022-10-22T08:15:43;4.07;;;1.33;;
50225;SDS011;36113;50.742;6.432;2022-10-22T08:18:10;2.38;;;1.00;;
50225;SDS011;36113;50.742;6.432;2022-10-22T08:20:36;5.38;;;1.42;;
50225;SDS011;36113;50.742;6.432;2022-10-22T08:23:01;6.97;;;1.70;;
50225;SDS011;36113;50.742;6.432;2022-10-22T08:25:26;6.73;;;2.20;;
50225;SDS011;36113;50.742;6.432;2022-10-22T08:27:52;5.10;;;1.97;;
50225;SDS011;36113;50.742;6.432;2022-10-22T08:30:17;3.55;;;2.78;;
50225;SDS011;36113;50.742;6.432;2022-10-22T08:32:43;11.53;;;4.07;;
50225;SDS011;36113;50.742;6.432;2022-10-22T08:35:08;9.98;;;3.70;;
50225;SDS011;36113;50.742;6.432;2022-10-22T08:37:34;5.37;;;1.57;;
50225;SDS011;36113;50.742;6.432;2022-10-22T08:39:59;6.67;;;2.47;;
50225;SDS011;36113;50.742;6.432;2022-10-22T08:42:32;5.40;;;3.00;;
50225;SDS011;36113;50.742;6.432;2022-10-22T08:45:23;10.73;;;4.35;;
50225;SDS011;36113;50.742;6.432;2022-10-22T08:50:57;3.20;;;1.40;;
50225;SDS011;36113;50.742;6.432;2022-10-22T08:56:47;5.88;;;1.48;;
50225;SDS011;36113;50.742;6.432;2022-10-22T08:59:22;4.57;;;1.85;;
50225;SDS011;36113;50.742;6.432;2022-10-22T09:01:50;7.32;;;2.40;;
50225;SDS011;36113;50.742;6.432;2022-10-22T09:04:39;3.03;;;1.20;;
50225;SDS011;36113;50.742;6.432;2022-10-22T09:07:09;4.28;;;1.40;;
50225;SDS011;36113;50.742;6.432;2022-10-22T09:09:38;3.10;;;1.10;;
50225;SDS011;36113;50.742;6.432;2022-10-22T09:12:09;5.68;;;1.98;;
50225;SDS011;36113;50.742;6.432;2022-10-22T09:14:39;6.00;;;1.80;;
50225;SDS011;36113;50.742;6.432;2022-10-22T09:20:15;1.35;;;0.85;;
50225;SDS011;36113;50.742;6.432;2022-10-22T09:25:29;5.47;;;1.75;;
50225;SDS011;36113;50.742;6.432;2022-10-22T09:27:57;6.57;;;0.93;;
50225;SDS011;36113;50.742;6.432;2022-10-22T09:30:26;2.80;;;1.00;;
50225;SDS011;36113;50.742;6.432;2022-10-22T09:32:57;2.25;;;1.55;;
50225;SDS011;36113;50.742;6.432;2022-10-22T09:35:26;2.92;;;1.70;;
50225;SDS011;36113;50.742;6.432;2022-10-22T09:37:53;5.10;;;1.42;;
50225;SDS011;36113;50.742;6.432;2022-10-22T09:40:20;3.60;;;1.13;;
50225;SDS011;36113;50.742;6.432;2022-10-22T09:42:46;6.60;;;1.38;;
50225;SDS011;36113;50.742;6.432;2022-10-22T09:45:17;5.33;;;1.20;;
50225;SDS011;36113;50.742;6.432;2022-10-22T09:47:48;4.55;;;1.05;;
50225;SDS011;36113;50.742;6.432;2022-10-22T09:50:18;9.47;;;1.80;;
50225;SDS011;36113;50.742;6.432;2022-10-22T09:52:45;3.53;;;0.80;;
50225;SDS011;36113;50.742;6.432;2022-10-22T09:55:18;5.38;;;1.35;;
50225;SDS011;36113;50.742;6.432;2022-10-22T09:57:47;5.10;;;1.10;;
50225;SDS011;36113;50.742;6.432;2022-10-22T10:00:17;4.95;;;1.15;;
50225;SDS011;36113;50.742;6.432;2022-10-22T10:02:43;3.22;;;1.00;;
50225;SDS011;36113;50.742;6.432;2022-10-22T10:05:16;4.07;;;1.00;;
50225;SDS011;36113;50.742;6.432;2022-10-22T10:07:43;5.28;;;1.40;;
50225;SDS011;36113;50.742;6.432;2022-10-22T10:10:18;3.53;;;1.00;;
50225;SDS011;36113;50.742;6.432;2022-10-22T10:15:47;2.67;;;1.00;;
50225;SDS011;36113;50.742;6.432;2022-10-22T10:23:45;3.58;;;0.98;;
50225;SDS011;36113;50.742;6.432;2022-10-22T10:26:22;4.90;;;0.88;;
50225;SDS011;36113;50.742;6.432;2022-10-22T10:34:37;2.50;;;0.80;;
50225;SDS011;36113;50.742;6.432;2022-10-22T10:40:13;5.28;;;1.48;;
50225;SDS011;36113;50.742;6.432;2022-10-22T10:49:00;5.18;;;1.20;;
50225;SDS011;36113;50.742;6.432;2022-10-22T10:54:39;4.85;;;1.45;;
50225;SDS011;36113;50.742;6.432;2022-10-22T11:00:13;4.32;;;0.82;;
50225;SDS011;36113;50.742;6.432;2022-10-22T11:05:53;4.85;;;1.02;;
50225;SDS011;36113;50.742;6.432;2022-10-22T11:17:31;4.03;;;0.68;;
50225;SDS011;36113;50.742;6.432;2022-10-22T11:19:51;2.13;;;0.88;;
50225;SDS011;36113;50.742;6.432;2022-10-22T11:22:40;2.63;;;0.70;;
50225;SDS011;36113;50.742;6.432;2022-10-22T11:27:41;4.67;;;0.77;;
50225;SDS011;36113;50.742;6.432;2022-10-22T11:30:17;4.15;;;0.93;;
50225;SDS011;36113;50.742;6.432;2022-10-22T11:32:57;2.60;;;0.55;;
50225;SDS011;36113;50.742;6.432;2022-10-22T11:35:27;3.55;;;0.80;;
50225;SDS011;36113;50.742;6.432;2022-10-22T11:37:56;4.63;;;0.90;;
50225;SDS011;36113;50.742;6.432;2022-10-22T11:43:25;3.95;;;0.82;;
50225;SDS011;36113;50.742;6.432;2022-10-22T11:46:23;4.28;;;1.00;;
50225;SDS011;36113;50.742;6.432;2022-10-22T11:51:39;1.40;;;0.90;;
50225;SDS011;36113;50.742;6.432;2022-10-22T11:54:49;4.82;;;1.00;;
50225;SDS011;36113;50.742;6.432;2022-10-22T11:57:16;3.65;;;1.00;;
50225;SDS011;36113;50.742;6.432;2022-10-22T11:59:46;2.90;;;0.70;;
50225;SDS011;36113;50.742;6.432;2022-10-22T12:05:16;3.20;;;0.88;;
50225;SDS011;36113;50.742;6.432;2022-10-22T12:07:58;4.28;;;0.95;;
50225;SDS011;36113;50.742;6.432;2022-10-22T12:10:28;2.67;;;0.80;;
50225;SDS011;36113;50.742;6.432;2022-10-22T12:13:27;2.60;;;0.85;;
50225;SDS011;36113;50.742;6.432;2022-10-22T12:15:57;2.05;;;0.70;;
50225;SDS011;36113;50.742;6.432;2022-10-22T12:18:26;1.70;;;0.90;;
50225;SDS011;36113;50.742;6.432;2022-10-22T12:20:57;2.10;;;0.88;;
50225;SDS011;36113;50.742;6.432;2022-10-22T12:23:27;3.53;;;1.10;;
50225;SDS011;36113;50.742;6.432;2022-10-22T12:25:55;2.65;;;0.65;;
50225;SDS011;36113;50.742;6.432;2022-10-22T12:28:21;4.27;;;1.07;;
50225;SDS011;36113;50.742;6.432;2022-10-22T12:30:47;1.20;;;0.50;;
50225;SDS011;36113;50.742;6.432;2022-10-22T12:33:30;2.93;;;1.20;;
50225;SDS011;36113;50.742;6.432;2022-10-22T12:35:56;2.13;;;0.60;;
50225;SDS011;36113;50.742;6.432;2022-10-22T12:38:24;3.05;;;1.13;;
50225;SDS011;36113;50.742;6.432;2022-10-22T12:40:50;2.27;;;0.90;;
50225;SDS011;36113;50.742;6.432;2022-10-22T12:43:26;1.77;;;0.80;;
50225;SDS011;36113;50.742;6.432;2022-10-22T12:45:53;1.40;;;0.75;;
50225;SDS011;36113;50.742;6.432;2022-10-22T12:48:25;1.23;;;0.80;;
50225;SDS011;36113;50.742;6.432;2022-10-22T12:50:55;2.35;;;0.80;;
50225;SDS011;36113;50.742;6.432;2022-10-22T12:56:04;4.28;;;0.95;;
50225;SDS011;36113;50.742;6.432;2022-10-22T12:58:33;3.63;;;1.20;;
50225;SDS011;36113;50.742;6.432;2022-10-22T13:01:05;4.60;;;0.80;;
50225;SDS011;36113;50.742;6.432;2022-10-22T13:03:32;5.60;;;0.90;;
50225;SDS011;36113;50.742;6.432;2022-10-22T13:08:43;0.73;;;0.63;;
50225;SDS011;36113;50.742;6.432;2022-10-22T13:11:19;2.90;;;1.10;;
50225;SDS011;36113;50.742;6.432;2022-10-22T13:13:44;3.83;;;0.90;;
50225;SDS011;36113;50.742;6.432;2022-10-22T13:16:11;2.92;;;1.02;;
50225;SDS011;36113;50.742;6.432;2022-10-22T13:18:41;3.13;;;0.90;;
50225;SDS011;36113;50.742;6.432;2022-10-22T13:21:28;4.28;;;1.33;;
50225;SDS011;36113;50.742;6.432;2022-10-22T13:24:16;2.80;;;0.65;;
50225;SDS011;36113;50.742;6.432;2022-10-22T13:26:46;2.40;;;0.82;;
50225;SDS011;36113;50.742;6.432;2022-10-22T13:29:14;1.92;;;0.60;;
50225;SDS011;36113;50.742;6.432;2022-10-22T13:31:44;3.17;;;0.90;;
50225;SDS011;36113;50.742;6.432;2022-10-22T13:34:13;1.00;;;0.70;;
50225;SDS011;36113;50.742;6.432;2022-10-22T13:36:41;4.88;;;0.90;;
50225;SDS011;36113;50.742;6.432;2022-10-22T13:39:09;2.03;;;0.80;;
50225;SDS011;36113;50.742;6.432;2022-10-22T13:41:40;2.95;;;1.00;;
50225;SDS011;36113;50.742;6.432;2022-10-22T13:44:05;2.17;;;0.80;;
50225;SDS011;36113;50.742;6.432;2022-10-22T13:46:30;3.67;;;1.00;;
50225;SDS011;36113;50.742;6.432;2022-10-22T13:48:56;11.43;;;1.30;;
50225;SDS011;36113;50.742;6.432;2022-10-22T13:51:24;6.95;;;1.20;;
50225;SDS011;36113;50.742;6.432;2022-10-22T13:53:55;4.20;;;0.88;;
50225;SDS011;36113;50.742;6.432;2022-10-22T13:56:22;1.47;;;0.83;;
50225;SDS011;36113;50.742;6.432;2022-10-22T14:01:20;3.45;;;0.90;;
50225;SDS011;36113;50.742;6.432;2022-10-22T14:03:50;2.50;;;1.02;;
50225;SDS011;36113;50.742;6.432;2022-10-22T14:06:17;1.50;;;0.80;;
50225;SDS011;36113;50.742;6.432;2022-10-22T14:08:45;4.05;;;1.25;;
50225;SDS011;36113;50.742;6.432;2022-10-22T14:11:14;3.05;;;1.00;;
50225;SDS011;36113;50.742;6.432;2022-10-22T14:13:40;5.27;;;0.83;;
50225;SDS011;36113;50.742;6.432;2022-10-22T14:16:06;5.03;;;0.90;;
50225;SDS011;36113;50.742;6.432;2022-10-22T14:18:38;4.80;;;1.25;;
50225;SDS011;36113;50.742;6.432;2022-10-22T14:21:05;5.43;;;0.95;;
50225;SDS011;36113;50.742;6.432;2022-10-22T14:23:32;3.33;;;1.05;;
50225;SDS011;36113;50.742;6.432;2022-10-22T14:25:59;3.08;;;0.90;;
50225;SDS011;36113;50.742;6.432;2022-10-22T14:28:24;2.10;;;0.90;;
50225;SDS011;36113;50.742;6.432;2022-10-22T14:30:50;3.90;;;1.10;;
50225;SDS011;36113;50.742;6.432;2022-10-22T14:33:18;6.73;;;0.93;;
50225;SDS011;36113;50.742;6.432;2022-10-22T14:35:47;7.85;;;0.98;;
50225;SDS011;36113;50.742;6.432;2022-10-22T14:38:13;2.13;;;1.00;;
50225;SDS011;36113;50.742;6.432;2022-10-22T14:40:39;2.20;;;1.17;;
50225;SDS011;36113;50.742;6.432;2022-10-22T14:43:08;3.60;;;1.00;;
50225;SDS011;36113;50.742;6.432;2022-10-22T14:45:35;4.47;;;1.40;;
50225;SDS011;36113;50.742;6.432;2022-10-22T14:48:00;2.40;;;1.03;;
50225;SDS011;36113;50.742;6.432;2022-10-22T14:50:26;3.57;;;0.87;;
50225;SDS011;36113;50.742;6.432;2022-10-22T14:52:51;3.10;;;1.00;;
50225;SDS011;36113;50.742;6.432;2022-10-22T14:55:17;6.63;;;1.37;;
50225;SDS011;36113;50.742;6.432;2022-10-22T14:57:43;3.53;;;1.50;;
50225;SDS011;36113;50.742;6.432;2022-10-22T15:00:11;1.47;;;0.93;;
50225;SDS011;36113;50.742;6.432;2022-10-22T15:02:39;5.90;;;0.80;;
50225;SDS011;36113;50.742;6.432;2022-10-22T15:05:04;2.40;;;0.77;;
50225;SDS011;36113;50.742;6.432;2022-10-22T15:07:30;3.83;;;1.17;;
50225;SDS011;36113;50.742;6.432;2022-10-22T15:09:56;1.40;;;0.83;;
50225;SDS011;36113;50.742;6.432;2022-10-22T15:12:21;3.77;;;0.80;;
50225;SDS011;36113;50.742;6.432;2022-10-22T15:14:47;7.90;;;1.10;;
50225;SDS011;36113;50.742;6.432;2022-10-22T15:17:13;3.27;;;0.97;;
50225;SDS011;36113;50.742;6.432;2022-10-22T15:19:39;2.00;;;1.02;;
50225;SDS011;36113;50.742;6.432;2022-10-22T15:22:05;6.63;;;1.80;;
50225;SDS011;36113;50.742;6.432;2022-10-22T15:24:31;2.23;;;1.40;;
50225;SDS011;36113;50.742;6.432;2022-10-22T15:26:56;4.82;;;1.42;;
50225;SDS011;36113;50.742;6.432;2022-10-22T15:29:22;3.70;;;1.93;;
50225;SDS011;36113;50.742;6.432;2022-10-22T15:31:51;2.83;;;1.70;;
50225;SDS011;36113;50.742;6.432;2022-10-22T15:34:39;5.05;;;1.45;;
50225;SDS011;36113;50.742;6.432;2022-10-22T15:37:06;2.08;;;1.63;;
50225;SDS011;36113;50.742;6.432;2022-10-22T15:39:33;2.30;;;1.10;;
50225;SDS011;36113;50.742;6.432;2022-10-22T15:41:58;6.03;;;1.60;;
50225;SDS011;36113;50.742;6.432;2022-10-22T15:44:27;6.50;;;2.03;;
50225;SDS011;36113;50.742;6.432;2022-10-22T15:46:54;5.85;;;1.20;;
50225;SDS011;36113;50.742;6.432;2022-10-22T15:49:20;4.07;;;1.53;;
50225;SDS011;36113;50.742;6.432;2022-10-22T15:51:47;3.35;;;1.42;;
50225;SDS011;36113;50.742;6.432;2022-10-22T15:54:13;7.97;;;2.50;;
50225;SDS011;36113;50.742;6.432;2022-10-22T15:56:41;12.02;;;1.60;;
50225;SDS011;36113;50.742;6.432;2022-10-22T15:59:06;4.93;;;1.60;;
50225;SDS011;36113;50.742;6.432;2022-10-22T16:01:34;5.85;;;1.48;;
50225;SDS011;36113;50.742;6.432;2022-10-22T16:03:59;5.63;;;1.73;;
50225;SDS011;36113;50.742;6.432;2022-10-22T16:06:27;3.72;;;1.48;;
50225;SDS011;36113;50.742;6.432;2022-10-22T16:08:55;2.83;;;1.90;;
50225;SDS011;36113;50.742;6.432;2022-10-22T16:13:46;4.43;;;1.70;;
50225;SDS011;36113;50.742;6.432;2022-10-22T16:16:12;3.43;;;1.60;;
50225;SDS011;36113;50.742;6.432;2022-10-22T16:18:37;8.57;;;2.27;;
50225;SDS011;36113;50.742;6.432;2022-10-22T16:21:03;6.50;;;1.50;;
50225;SDS011;36113;50.742;6.432;2022-10-22T16:23:28;6.23;;;1.77;;
50225;SDS011;36113;50.742;6.432;2022-10-22T16:25:53;3.73;;;1.73;;
50225;SDS011;36113;50.742;6.432;2022-10-22T16:28:19;4.27;;;1.20;;
50225;SDS011;36113;50.742;6.432;2022-10-22T16:30:44;5.03;;;1.60;;
50225;SDS011;36113;50.742;6.432;2022-10-22T16:33:10;5.97;;;1.40;;
50225;SDS011;36113;50.742;6.432;2022-10-22T16:35:39;8.57;;;1.60;;
50225;SDS011;36113;50.742;6.432;2022-10-22T16:38:05;4.22;;;1.48;;
50225;SDS011;36113;50.742;6.432;2022-10-22T16:40:31;6.30;;;1.47;;
50225;SDS011;36113;50.742;6.432;2022-10-22T16:42:56;1.10;;;1.10;;
50225;SDS011;36113;50.742;6.432;2022-10-22T16:45:22;7.10;;;1.55;;
50225;SDS011;36113;50.742;6.432;2022-10-22T16:47:47;3.90;;;2.83;;
50225;SDS011;36113;50.742;6.432;2022-10-22T16:50:13;8.03;;;2.57;;
50225;SDS011;36113;50.742;6.432;2022-10-22T16:52:38;8.30;;;3.50;;
50225;SDS011;36113;50.742;6.432;2022-10-22T16:55:04;6.33;;;2.93;;
50225;SDS011;36113;50.742;6.432;2022-10-22T16:57:29;6.43;;;2.60;;